createdAt,value
2023-12-18T00:00:49.741Z,103162.22
2023-12-18T00:03:17.661Z,103172.50
2023-12-18T00:05:45.243Z,103163.53
2023-12-18T00:08:12.673Z,103168.66
2023-12-18T00:10:40.301Z,103168.53
2023-12-18T00:13:07.500Z,103171.94
2023-12-18T00:15:35.036Z,103168.25
2023-12-18T00:18:02.452Z,103175.97
2023-12-18T00:20:29.573Z,103185.38
2023-12-18T00:22:56.583Z,103180.09
2023-12-18T00:25:23.857Z,103182.91
2023-12-18T00:27:51.900Z,103192.69
2023-12-18T00:30:19.771Z,103187.97
2023-12-18T00:32:46.904Z,103193.50
2023-12-18T00:35:14.148Z,103195.56
2023-12-18T00:37:41.646Z,103200.34
2023-12-18T00:40:09.868Z,103199.84
2023-12-18T00:42:38.148Z,103193.31
2023-12-18T00:45:07.069Z,103190.97
2023-12-18T00:47:34.523Z,103187.75
2023-12-18T00:50:03.865Z,103189.75
2023-12-18T00:52:32.456Z,103189.22
2023-12-18T00:54:59.489Z,103181.75
2023-12-18T00:57:26.795Z,103179.44
2023-12-18T00:59:54.199Z,103169.16
2023-12-18T01:02:21.440Z,103165.03
2023-12-18T01:04:48.547Z,103171.41
2023-12-18T01:07:16.076Z,103162.16
2023-12-18T01:09:43.547Z,103167.56
2023-12-18T01:12:11.008Z,103165.16
2023-12-18T01:14:38.345Z,103167.94
2023-12-18T01:17:05.714Z,103159.38
2023-12-18T01:19:33.021Z,103162.09
2023-12-18T01:22:00.389Z,103162.25
2023-12-18T01:24:27.986Z,103161.44
2023-12-18T01:26:55.442Z,103166.75
2023-12-18T01:29:22.818Z,103170.34
2023-12-18T01:31:49.868Z,103169.69
2023-12-18T01:34:17.067Z,103170.59
2023-12-18T01:36:44.326Z,103155.91
2023-12-18T01:39:11.402Z,103162.91
2023-12-18T01:41:38.528Z,103166.50
2023-12-18T01:44:05.834Z,103165.81
2023-12-18T01:46:36.647Z,103166.78
2023-12-18T01:49:04.082Z,103165.09
2023-12-18T01:51:31.683Z,103159.94
2023-12-18T01:54:00.299Z,103174.78
2023-12-18T01:56:31.985Z,103163.53
2023-12-18T01:59:00.641Z,103168.75
2023-12-18T02:01:29.416Z,103160.84
2023-12-18T02:03:57.544Z,103159.22
2023-12-18T02:06:25.372Z,103161.81
2023-12-18T02:08:53.183Z,103161.94
2023-12-18T02:11:21.131Z,103162.84
2023-12-18T02:13:48.584Z,103149.78
2023-12-18T02:16:15.851Z,103156.88
2023-12-18T02:18:47.493Z,103151.66
2023-12-18T02:21:23.932Z,103143.09
2023-12-18T02:23:52.146Z,103146.50
2023-12-18T02:26:20.297Z,103142.28
2023-12-18T02:28:47.810Z,103148.41
2023-12-18T02:31:16.398Z,103151.03
2023-12-18T02:33:49.848Z,103143.28
2023-12-18T02:36:17.912Z,103141.56
2023-12-18T02:38:45.112Z,103142.47
2023-12-18T02:41:12.173Z,103133.72
2023-12-18T02:43:39.276Z,103135.53
2023-12-18T02:46:06.344Z,103136.41
2023-12-18T02:48:33.643Z,103133.00
2023-12-18T02:51:01.192Z,103129.47
2023-12-18T02:53:28.559Z,103138.13
2023-12-18T02:55:55.656Z,103125.06
2023-12-18T02:58:23.892Z,103124.25
2023-12-18T03:00:51.915Z,103125.97
2023-12-18T03:03:20.756Z,103127.69
2023-12-18T03:05:48.176Z,103115.44
2023-12-18T03:08:15.423Z,103118.22
2023-12-18T03:10:42.431Z,103120.91
2023-12-18T03:13:09.818Z,103111.28
2023-12-18T03:15:37.003Z,103106.13
2023-12-18T03:18:04.449Z,103103.63
2023-12-18T03:20:31.512Z,103097.47
2023-12-18T03:22:58.628Z,103113.34
2023-12-18T03:25:25.669Z,103105.44
2023-12-18T03:27:52.808Z,103107.31
2023-12-18T03:30:20.074Z,103111.72
2023-12-18T03:32:47.336Z,103101.19
2023-12-18T03:35:14.586Z,103102.91
2023-12-18T03:37:41.728Z,103101.91
2023-12-18T03:40:10.032Z,103097.47
2023-12-18T03:42:39.636Z,103093.00
2023-12-18T03:45:07.625Z,103091.28
2023-12-18T03:47:34.717Z,103096.59
2023-12-18T03:50:01.830Z,103096.69
2023-12-18T03:52:28.956Z,103091.47
2023-12-18T03:54:56.090Z,103099.31
2023-12-18T03:57:23.230Z,103096.69
2023-12-18T03:59:50.355Z,103097.47
2023-12-18T04:02:17.359Z,103098.56
2023-12-18T04:04:46.048Z,103094.16
2023-12-18T04:07:13.345Z,103102.91
2023-12-18T04:09:40.988Z,103095.13
2023-12-18T04:12:08.443Z,103102.06
2023-12-18T04:14:35.556Z,103106.41
2023-12-18T04:17:02.589Z,103108.28
2023-12-18T04:19:30.039Z,103110.06
2023-12-18T04:21:57.217Z,103104.03
2023-12-18T04:24:24.696Z,103100.63
2023-12-18T04:26:51.873Z,103099.91
2023-12-18T04:29:19.228Z,103098.09
2023-12-18T04:31:46.696Z,103099.91
2023-12-18T04:34:14.070Z,103099.09
2023-12-18T04:36:41.454Z,103092.13
2023-12-18T04:39:08.726Z,103084.31
2023-12-18T04:41:35.751Z,103082.50
2023-12-18T04:44:02.833Z,103085.19
2023-12-18T04:46:36.553Z,103087.00
2023-12-18T04:49:05.123Z,103080.94
2023-12-18T04:51:32.794Z,103075.72
2023-12-18T04:54:01.232Z,103085.28
2023-12-18T04:56:28.646Z,103087.00
2023-12-18T04:58:55.742Z,103085.28
2023-12-18T05:01:22.918Z,103087.97
2023-12-18T05:03:50.414Z,103084.56
2023-12-18T05:06:23.297Z,103087.97
2023-12-18T05:08:51.524Z,103088.97
2023-12-18T05:11:23.442Z,103077.78
2023-12-18T05:13:50.929Z,103082.19
2023-12-18T05:16:21.924Z,103080.56
2023-12-18T05:18:50.249Z,103089.22
2023-12-18T05:21:17.598Z,103078.69
2023-12-18T05:23:48.989Z,103071.75
2023-12-18T05:26:16.500Z,103068.31
2023-12-18T05:28:43.813Z,103071.81
2023-12-18T05:31:12.328Z,103067.50
2023-12-18T05:33:39.718Z,103080.66
2023-12-18T05:36:08.545Z,103077.16
2023-12-18T05:38:35.656Z,103073.53
2023-12-18T05:41:03.105Z,103076.06
2023-12-18T05:43:30.281Z,103079.59
2023-12-18T05:45:57.548Z,103077.78
2023-12-18T05:48:24.709Z,103080.41
2023-12-18T05:50:51.880Z,103095.34
2023-12-18T05:53:19.250Z,103097.25
2023-12-18T05:55:46.709Z,103098.97
2023-12-18T05:58:13.871Z,103100.56
2023-12-18T06:00:41.137Z,103095.25
2023-12-18T06:03:08.373Z,103093.53
2023-12-18T06:05:35.536Z,103099.66
2023-12-18T06:08:02.811Z,103086.53
2023-12-18T06:10:30.129Z,103092.66
2023-12-18T06:12:57.636Z,103084.72
2023-12-18T06:15:24.956Z,103088.31
2023-12-18T06:17:52.896Z,103090.94
2023-12-18T06:20:20.266Z,103083.00
2023-12-18T06:22:47.523Z,103083.00
2023-12-18T06:25:14.632Z,103087.34
2023-12-18T06:27:44.864Z,103084.81
2023-12-18T06:30:12.821Z,103080.47
2023-12-18T06:32:40.388Z,103077.78
2023-12-18T06:35:08.614Z,103070.91
2023-12-18T06:37:35.741Z,103075.31
2023-12-18T06:40:03.605Z,103079.59
2023-12-18T06:42:30.985Z,103081.38
2023-12-18T06:44:58.210Z,103086.59
2023-12-18T06:47:25.573Z,103091.00
2023-12-18T06:49:52.672Z,103086.59
2023-12-18T06:52:19.958Z,103084.00
2023-12-18T06:54:47.419Z,103087.50
2023-12-18T06:57:14.732Z,103091.13
2023-12-18T06:59:41.831Z,103078.06
2023-12-18T07:02:09.104Z,103085.06
2023-12-18T07:04:36.275Z,103090.22
2023-12-18T07:07:03.554Z,103090.31
2023-12-18T07:09:30.989Z,103082.47
2023-12-18T07:11:58.317Z,103088.66
2023-12-18T07:14:25.941Z,103087.03
2023-12-18T07:16:56.497Z,103079.19
2023-12-18T07:19:24.247Z,103087.22
2023-12-18T07:21:51.386Z,103089.81
2023-12-18T07:24:18.573Z,103088.00
2023-12-18T07:26:45.960Z,103094.22
2023-12-18T07:29:13.023Z,103094.22
2023-12-18T07:31:40.480Z,103094.38
2023-12-18T07:34:08.165Z,103097.09
2023-12-18T07:36:37.210Z,103098.06
2023-12-18T07:39:04.450Z,103098.06
2023-12-18T07:41:32.289Z,103099.00
2023-12-18T07:43:59.553Z,103094.66
2023-12-18T07:46:28.252Z,103097.28
2023-12-18T07:48:56.087Z,103093.75
2023-12-18T07:51:23.664Z,103095.56
2023-12-18T07:53:51.340Z,103099.13
2023-12-18T07:56:18.860Z,103094.81
2023-12-18T07:58:46.570Z,103100.13
2023-12-18T08:01:16.869Z,103090.47
2023-12-18T08:03:45.380Z,103095.72
2023-12-18T08:06:12.569Z,103094.06
2023-12-18T08:08:39.677Z,103083.53
2023-12-18T08:11:06.830Z,103093.25
2023-12-18T08:13:39.662Z,103091.72
2023-12-18T08:16:08.296Z,103091.78
2023-12-18T08:18:35.737Z,103090.16
2023-12-18T08:21:03.083Z,103088.50
2023-12-18T08:23:30.267Z,103085.19
2023-12-18T08:25:57.922Z,103088.50
2023-12-18T08:28:25.298Z,103086.00
2023-12-18T08:30:52.504Z,103075.63
2023-12-18T08:33:19.801Z,103073.16
2023-12-18T08:35:47.105Z,103071.50
2023-12-18T08:38:14.932Z,103077.00
2023-12-18T08:40:42.380Z,103074.47
2023-12-18T08:43:09.760Z,103072.81
2023-12-18T08:45:38.067Z,103069.63
2023-12-18T08:48:06.033Z,103069.06
2023-12-18T08:50:33.164Z,103066.75
2023-12-18T08:53:01.127Z,103065.34
2023-12-18T08:55:28.317Z,103061.28
2023-12-18T08:57:55.514Z,103051.28
2023-12-18T09:00:23.487Z,103055.94
2023-12-18T09:02:50.573Z,103053.59
2023-12-18T09:05:17.830Z,103049.56
2023-12-18T09:07:44.806Z,103047.03
2023-12-18T09:10:12.875Z,103040.06
2023-12-18T09:12:40.505Z,103042.78
2023-12-18T09:15:08.479Z,103051.63
2023-12-18T09:17:36.245Z,103032.53
2023-12-18T09:20:04.240Z,103035.28
2023-12-18T09:22:31.296Z,103038.00
2023-12-18T09:24:58.432Z,103038.91
2023-12-18T09:27:25.599Z,103045.88
2023-12-18T09:29:52.730Z,103044.88
2023-12-18T09:32:19.966Z,103040.31
2023-12-18T09:34:47.800Z,103046.50
2023-12-18T09:37:15.127Z,103054.38
2023-12-18T09:39:43.115Z,103060.44
2023-12-18T09:42:16.595Z,103062.09
2023-12-18T09:44:48.131Z,103062.00
2023-12-18T09:47:15.487Z,103063.75
2023-12-18T09:49:42.736Z,103065.34
2023-12-18T09:52:12.337Z,103059.28
2023-12-18T09:54:43.799Z,103066.19
2023-12-18T09:57:13.805Z,103063.56
2023-12-18T09:59:41.223Z,103055.72
2023-12-18T10:02:11.094Z,103052.06
2023-12-18T10:04:42.869Z,103056.38
2023-12-18T10:07:09.936Z,103059.84
2023-12-18T10:09:37.618Z,103050.25
2023-12-18T10:12:05.333Z,103047.66
2023-12-18T10:14:32.527Z,103047.78
2023-12-18T10:17:00.452Z,103044.41
2023-12-18T10:19:30.911Z,103040.25
2023-12-18T10:21:59.059Z,103049.19
2023-12-18T10:24:27.087Z,103044.22
2023-12-18T10:26:54.248Z,103054.69
2023-12-18T10:29:21.435Z,103041.66
2023-12-18T10:31:49.003Z,103046.81
2023-12-18T10:34:19.117Z,103044.22
2023-12-18T10:36:47.635Z,103041.66
2023-12-18T10:39:20.179Z,103038.16
2023-12-18T10:41:54.819Z,103031.06
2023-12-18T10:44:24.500Z,103023.03
2023-12-18T10:46:52.031Z,103017.78
2023-12-18T10:49:21.654Z,103014.44
2023-12-18T10:51:51.273Z,103008.53
2023-12-18T10:54:19.290Z,103016.69
2023-12-18T10:56:49.020Z,103000.91
2023-12-18T10:59:19.716Z,103000.81
2023-12-18T11:01:47.672Z,102998.34
2023-12-18T11:04:15.071Z,102987.94
2023-12-18T11:06:42.867Z,102988.84
2023-12-18T11:09:10.094Z,102984.34
2023-12-18T11:11:38.187Z,102988.63
2023-12-18T11:14:29.074Z,102994.91
2023-12-18T11:17:24.122Z,102990.56
2023-12-18T11:20:24.226Z,102995.44
2023-12-18T11:22:56.835Z,102988.41
2023-12-18T11:25:50.477Z,102988.09
2023-12-18T11:28:18.349Z,102993.19
2023-12-18T11:30:46.033Z,102984.44
2023-12-18T11:33:16.328Z,102982.47
2023-12-18T11:35:50.062Z,102981.59
2023-12-18T11:38:20.323Z,102983.53
2023-12-18T11:40:51.627Z,102973.97
2023-12-18T11:43:40.448Z,102978.13
2023-12-18T11:46:16.946Z,102978.00
2023-12-18T11:48:47.671Z,102968.22
2023-12-18T11:51:17.029Z,102961.16
2023-12-18T11:53:44.243Z,102963.25
2023-12-18T11:56:13.237Z,102968.66
2023-12-18T11:58:43.739Z,102955.06
2023-12-18T12:01:11.531Z,102951.75
2023-12-18T12:03:41.537Z,102967.69
2023-12-18T12:06:09.858Z,102952.88
2023-12-18T12:08:51.926Z,102956.38
2023-12-18T12:11:20.393Z,102945.16
2023-12-18T12:13:49.179Z,102937.28
2023-12-18T12:16:19.649Z,102936.47
2023-12-18T12:18:51.680Z,102926.88
2023-12-18T12:21:20.074Z,102926.06
2023-12-18T12:23:49.540Z,102924.63
2023-12-18T12:26:24.357Z,102924.75
2023-12-18T12:28:51.463Z,102921.34
2023-12-18T12:31:20.076Z,102931.00
2023-12-18T12:33:50.179Z,102937.84
2023-12-18T12:36:22.376Z,102940.41
2023-12-18T12:38:49.943Z,102930.75
2023-12-18T12:41:17.968Z,102932.47
2023-12-18T12:43:46.128Z,102931.53
2023-12-18T12:46:17.250Z,102921.13
2023-12-18T12:48:49.638Z,102915.81
2023-12-18T12:51:19.813Z,102916.56
2023-12-18T12:53:47.450Z,102924.31
2023-12-18T12:56:14.907Z,102910.22
2023-12-18T12:58:41.941Z,102912.75
2023-12-18T13:01:09.379Z,102903.19
2023-12-18T13:03:37.315Z,102898.59
2023-12-18T13:06:05.171Z,102896.81
2023-12-18T13:08:34.508Z,102886.34
2023-12-18T13:11:05.915Z,102895.31
2023-12-18T13:13:33.507Z,102883.13
2023-12-18T13:16:00.920Z,102879.63
2023-12-18T13:18:28.517Z,102879.69
2023-12-18T13:20:55.621Z,102882.38
2023-12-18T13:23:23.056Z,102875.47
2023-12-18T13:25:51.370Z,102867.47
2023-12-18T13:28:18.842Z,102868.25
2023-12-18T13:30:46.069Z,102872.66
2023-12-18T13:33:13.574Z,102857.84
2023-12-18T13:35:40.920Z,102854.38
2023-12-18T13:38:08.107Z,102851.69
2023-12-18T13:40:35.272Z,102846.47
2023-12-18T13:43:03.506Z,102831.41
2023-12-18T13:45:30.743Z,102824.63
2023-12-18T13:47:59.313Z,102827.31
2023-12-18T13:50:27.719Z,102827.31
2023-12-18T13:52:56.254Z,102830.69
2023-12-18T13:55:23.540Z,102838.38
2023-12-18T13:57:50.721Z,102842.53
2023-12-18T14:00:20.863Z,102848.38
2023-12-18T14:02:49.251Z,102841.22
2023-12-18T14:05:16.690Z,102820.88
2023-12-18T14:07:44.298Z,102820.94
2023-12-18T14:10:11.634Z,102825.16
2023-12-18T14:12:38.846Z,102822.22
2023-12-18T14:15:07.236Z,102823.97
2023-12-18T14:17:34.712Z,102832.63
2023-12-18T14:20:05.982Z,102832.47
2023-12-18T14:22:34.387Z,102820.28
2023-12-18T14:25:03.685Z,102812.44
2023-12-18T14:27:33.213Z,102825.50
2023-12-18T14:30:01.213Z,102805.28
2023-12-18T14:32:28.832Z,102813.78
2023-12-18T14:34:56.217Z,102817.03
2023-12-18T14:37:23.571Z,102810.66
2023-12-18T14:39:50.942Z,102826.31
2023-12-18T14:42:18.417Z,102846.34
2023-12-18T14:44:45.643Z,102835.81
2023-12-18T14:47:13.208Z,102830.13
2023-12-18T14:49:40.741Z,102835.94
2023-12-18T14:52:08.074Z,102832.31
2023-12-18T14:54:35.471Z,102847.00
2023-12-18T14:57:02.667Z,102843.56
2023-12-18T14:59:30.059Z,102846.09
2023-12-18T15:02:00.234Z,102832.97
2023-12-18T15:04:30.500Z,102834.69
2023-12-18T15:06:59.735Z,102836.41
2023-12-18T15:09:29.188Z,102826.53
2023-12-18T15:11:57.039Z,102830.59
2023-12-18T15:14:24.568Z,102832.13
2023-12-18T15:16:51.803Z,102825.88
2023-12-18T15:19:19.406Z,102823.84
2023-12-18T15:21:46.736Z,102824.41
2023-12-18T15:24:14.137Z,102805.97
2023-12-18T15:26:41.760Z,102796.09
2023-12-18T15:29:08.798Z,102787.16
2023-12-18T15:31:36.346Z,102793.03
2023-12-18T15:34:07.480Z,102820.88
2023-12-18T15:36:35.109Z,102823.28
2023-12-18T15:39:03.008Z,102813.38
2023-12-18T15:41:33.274Z,102829.72
2023-12-18T15:44:00.610Z,102826.13
2023-12-18T15:46:27.819Z,102823.38
2023-12-18T15:48:55.198Z,102819.69
2023-12-18T15:51:22.522Z,102817.69
2023-12-18T15:53:49.846Z,102812.19
2023-12-18T15:56:17.085Z,102831.97
2023-12-18T15:58:44.951Z,102821.53
2023-12-18T16:01:13.537Z,102814.47
2023-12-18T16:03:41.904Z,102811.56
2023-12-18T16:06:09.234Z,102818.19
2023-12-18T16:08:36.748Z,102796.41
2023-12-18T16:11:04.170Z,102784.94
2023-12-18T16:13:31.290Z,102798.81
2023-12-18T16:15:58.669Z,102800.28
2023-12-18T16:18:26.055Z,102807.97
2023-12-18T16:20:53.486Z,102790.41
2023-12-18T16:23:20.750Z,102797.09
2023-12-18T16:25:48.233Z,102790.81
2023-12-18T16:28:15.541Z,102776.88
2023-12-18T16:30:52.980Z,102767.09
2023-12-18T16:33:23.971Z,102783.47
2023-12-18T16:35:51.293Z,102792.03
2023-12-18T16:38:18.885Z,102767.50
2023-12-18T16:40:50.518Z,102756.81
2023-12-18T16:43:17.783Z,102761.94
2023-12-18T16:45:44.990Z,102737.41
2023-12-18T16:48:12.462Z,102752.88
2023-12-18T16:50:39.575Z,102763.41
2023-12-18T16:53:06.786Z,102754.75
2023-12-18T16:55:33.957Z,102760.16
2023-12-18T16:58:02.475Z,102764.41
2023-12-18T17:00:33.194Z,102776.69
2023-12-18T17:03:01.249Z,102774.91
2023-12-18T17:05:28.861Z,102768.94
2023-12-18T17:07:56.107Z,102772.53
2023-12-18T17:10:23.177Z,102760.56
2023-12-18T17:12:50.567Z,102758.84
2023-12-18T17:15:17.932Z,102749.13
2023-12-18T17:17:45.181Z,102751.59
2023-12-18T17:20:12.650Z,102763.66
2023-12-18T17:22:40.884Z,102768.06
2023-12-18T17:25:08.482Z,102766.25
2023-12-18T17:27:35.717Z,102784.53
2023-12-18T17:30:03.043Z,102777.44
2023-12-18T17:32:30.637Z,102797.31
2023-12-18T17:35:00.193Z,102794.63
2023-12-18T17:37:27.953Z,102796.25
2023-12-18T17:39:55.894Z,102789.31
2023-12-18T17:42:24.402Z,102792.69
2023-12-18T17:44:51.626Z,102795.16
2023-12-18T17:47:18.658Z,102782.88
2023-12-18T17:49:46.141Z,102775.13
2023-12-18T17:52:13.460Z,102763.78
2023-12-18T17:54:40.694Z,102760.28
2023-12-18T17:57:07.814Z,102748.00
2023-12-18T17:59:35.114Z,102731.44
2023-12-18T18:02:02.355Z,102732.06
2023-12-18T18:04:29.814Z,102736.50
2023-12-18T18:06:57.143Z,102726.78
2023-12-18T18:09:24.258Z,102698.84
2023-12-18T18:11:51.500Z,102686.44
2023-12-18T18:14:18.783Z,102681.13
2023-12-18T18:16:46.009Z,102675.78
2023-12-18T18:19:15.759Z,102690.44
2023-12-18T18:21:43.047Z,102705.19
2023-12-18T18:24:10.206Z,102701.69
2023-12-18T18:26:37.590Z,102706.91
2023-12-18T18:29:05.272Z,102709.41
2023-12-18T18:31:33.097Z,102710.22
2023-12-18T18:34:04.973Z,102713.66
2023-12-18T18:36:34.257Z,102707.53
2023-12-18T18:39:03.352Z,102712.66
2023-12-18T18:41:31.751Z,102699.63
2023-12-18T18:43:59.401Z,102701.28
2023-12-18T18:46:27.365Z,102689.94
2023-12-18T18:48:54.981Z,102683.91
2023-12-18T18:51:22.360Z,102684.00
2023-12-18T18:53:49.540Z,102677.13
2023-12-18T18:56:16.790Z,102673.56
2023-12-18T18:58:44.899Z,102677.81
2023-12-18T19:01:12.172Z,102674.38
2023-12-18T19:03:41.935Z,102668.41
2023-12-18T19:06:09.352Z,102670.22
2023-12-18T19:08:36.600Z,102691.06
2023-12-18T19:11:04.225Z,102678.69
2023-12-18T19:13:31.342Z,102676.72
2023-12-18T19:15:58.582Z,102675.81
2023-12-18T19:18:26.427Z,102656.59
2023-12-18T19:20:54.649Z,102668.00
2023-12-18T19:23:22.501Z,102658.56
2023-12-18T19:25:49.749Z,102652.63
2023-12-18T19:28:17.405Z,102647.41
2023-12-18T19:30:45.167Z,102643.16
2023-12-18T19:33:12.775Z,102660.69
2023-12-18T19:35:43.572Z,102659.84
2023-12-18T19:38:10.965Z,102653.94
2023-12-18T19:40:38.122Z,102663.56
2023-12-18T19:43:07.271Z,102665.34
2023-12-18T19:45:34.542Z,102655.88
2023-12-18T19:48:01.874Z,102669.09
2023-12-18T19:50:29.603Z,102660.47
2023-12-18T19:52:56.850Z,102669.19
2023-12-18T19:55:23.976Z,102670.97
2023-12-18T19:57:51.108Z,102657.94
2023-12-18T20:00:18.948Z,102656.13
2023-12-18T20:02:46.574Z,102658.75
2023-12-18T20:05:13.750Z,102657.94
2023-12-18T20:07:41.066Z,102652.63
2023-12-18T20:10:11.645Z,102661.34
2023-12-18T20:12:39.179Z,102659.63
2023-12-18T20:15:07.423Z,102658.00
2023-12-18T20:17:35.353Z,102648.72
2023-12-18T20:20:02.607Z,102661.84
2023-12-18T20:22:31.375Z,102670.63
2023-12-18T20:24:58.938Z,102664.66
2023-12-18T20:27:28.757Z,102655.25
2023-12-18T20:29:56.203Z,102647.50
2023-12-18T20:32:23.733Z,102654.50
2023-12-18T20:34:51.502Z,102665.06
2023-12-18T20:37:18.720Z,102649.50
2023-12-18T20:39:45.877Z,102654.81
2023-12-18T20:42:14.084Z,102662.72
2023-12-18T20:44:41.190Z,102672.41
2023-12-18T20:47:08.284Z,102683.00
2023-12-18T20:49:35.862Z,102673.56
2023-12-18T20:52:03.469Z,102658.06
2023-12-18T20:54:30.572Z,102645.06
2023-12-18T20:56:58.015Z,102631.22
2023-12-18T20:59:25.520Z,102612.06
2023-12-18T21:01:52.676Z,102611.16
2023-12-18T21:04:20.214Z,102617.19
2023-12-18T21:06:48.251Z,102618.91
2023-12-18T21:09:16.007Z,102590.28
2023-12-18T21:11:43.373Z,102590.28
2023-12-18T21:14:19.656Z,102587.59
2023-12-18T21:16:53.135Z,102593.78
2023-12-18T21:19:20.419Z,102586.94
2023-12-18T21:21:52.017Z,102599.19
2023-12-18T21:24:19.968Z,102574.81
2023-12-18T21:26:47.413Z,102557.44
2023-12-18T21:29:14.962Z,102559.13
2023-12-18T21:31:42.310Z,102541.75
2023-12-18T21:34:10.014Z,102551.13
2023-12-18T21:36:39.232Z,102551.13
2023-12-18T21:39:10.884Z,102544.19
2023-12-18T21:41:39.326Z,102559.94
2023-12-18T21:44:06.542Z,102542.66
2023-12-18T21:46:33.960Z,102527.00
2023-12-18T21:49:01.537Z,102537.25
2023-12-18T21:51:34.994Z,102547.00
2023-12-18T21:54:05.579Z,102535.72
2023-12-18T21:56:32.691Z,102540.13
2023-12-18T21:59:00.299Z,102531.47
2023-12-18T22:01:27.517Z,102519.31
2023-12-18T22:03:54.910Z,102519.31
2023-12-18T22:06:23.635Z,102523.63
2023-12-18T22:08:51.509Z,102532.44
2023-12-18T22:11:18.809Z,102545.53
2023-12-18T22:13:46.229Z,102562.03
2023-12-18T22:16:15.757Z,102571.75
2023-12-18T22:18:43.911Z,102577.75
2023-12-18T22:21:12.125Z,102583.09
2023-12-18T22:23:44.670Z,102577.03
2023-12-18T22:26:13.759Z,102569.28
2023-12-18T22:28:41.861Z,102571.97
2023-12-18T22:31:10.545Z,102572.13
2023-12-18T22:36:08.069Z,102573.22
2023-12-18T22:38:35.212Z,102560.19
2023-12-18T22:41:02.922Z,102568.97
2023-12-18T22:43:30.219Z,102568.91
2023-12-18T22:45:57.533Z,102566.47
2023-12-18T22:48:28.047Z,102568.25
2023-12-18T22:50:55.365Z,102572.69
2023-12-18T22:53:23.614Z,102579.75
2023-12-18T22:55:53.874Z,102565.81
2023-12-18T22:58:22.501Z,102553.59
2023-12-18T23:00:50.521Z,102553.66
2023-12-18T23:03:18.427Z,102536.34
2023-12-18T23:05:45.634Z,102527.63
2023-12-18T23:08:13.129Z,102519.78
2023-12-18T23:10:41.833Z,102518.88
2023-12-18T23:13:09.476Z,102519.06
2023-12-18T23:15:36.718Z,102529.50
2023-12-18T23:18:04.593Z,102523.28
2023-12-18T23:20:33.258Z,102512.94
2023-12-18T23:23:00.679Z,102518.16
2023-12-18T23:25:27.825Z,102520.03
2023-12-18T23:27:55.857Z,102518.38
2023-12-18T23:30:23.450Z,102503.59
2023-12-18T23:32:52.029Z,102517.47
2023-12-18T23:35:20.105Z,102520.97
2023-12-18T23:37:47.739Z,102520.97
2023-12-18T23:40:15.133Z,102527.91
2023-12-18T23:42:42.750Z,102506.13
2023-12-18T23:45:11.286Z,102510.41
2023-12-18T23:47:38.876Z,102500.03
2023-12-18T23:50:07.315Z,102483.53
2023-12-18T23:52:34.628Z,102486.97
2023-12-18T23:55:01.795Z,102483.47
2023-12-18T23:57:29.048Z,102471.25
2023-12-18T23:59:56.453Z,102466.09
